sensor_id;sensor_type;location;lat;lon;timestamp;P1;durP1;ratioP1;P2;durP2;ratioP2
37299;SDS011;23184;51.902;12.836;2023-08-12T00:00:59;4.00;;;1.83;;
37299;SDS011;23184;51.902;12.836;2023-08-12T00:03:24;4.82;;;2.00;;
37299;SDS011;23184;51.902;12.836;2023-08-12T00:05:50;6.78;;;2.20;;
37299;SDS011;23184;51.902;12.836;2023-08-12T00:08:16;7.82;;;2.10;;
37299;SDS011;23184;51.902;12.836;2023-08-12T00:10:42;3.95;;;2.03;;
37299;SDS011;23184;51.902;12.836;2023-08-12T00:13:08;5.18;;;2.20;;
37299;SDS011;23184;51.902;12.836;2023-08-12T00:15:34;4.53;;;2.00;;
37299;SDS011;23184;51.902;12.836;2023-08-12T00:18:00;4.40;;;2.33;;
37299;SDS011;23184;51.902;12.836;2023-08-12T00:20:25;5.30;;;1.98;;
37299;SDS011;23184;51.902;12.836;2023-08-12T00:22:51;3.63;;;2.00;;
37299;SDS011;23184;51.902;12.836;2023-08-12T00:25:16;3.88;;;1.80;;
37299;SDS011;23184;51.902;12.836;2023-08-12T00:27:42;2.58;;;1.85;;
37299;SDS011;23184;51.902;12.836;2023-08-12T00:30:07;11.70;;;2.88;;
37299;SDS011;23184;51.902;12.836;2023-08-12T00:32:34;7.15;;;2.00;;
37299;SDS011;23184;51.902;12.836;2023-08-12T00:34:59;4.50;;;2.03;;
37299;SDS011;23184;51.902;12.836;2023-08-12T00:37:25;3.15;;;1.90;;
37299;SDS011;23184;51.902;12.836;2023-08-12T00:39:50;3.63;;;1.80;;
37299;SDS011;23184;51.902;12.836;2023-08-12T00:42:16;4.25;;;2.10;;
37299;SDS011;23184;51.902;12.836;2023-08-12T00:44:41;8.48;;;2.10;;
37299;SDS011;23184;51.902;12.836;2023-08-12T00:47:07;2.17;;;1.77;;
37299;SDS011;23184;51.902;12.836;2023-08-12T00:49:32;3.22;;;1.98;;
37299;SDS011;23184;51.902;12.836;2023-08-12T00:51:58;4.70;;;2.08;;
37299;SDS011;23184;51.902;12.836;2023-08-12T00:54:24;5.00;;;2.20;;
37299;SDS011;23184;51.902;12.836;2023-08-12T00:56:51;3.65;;;2.00;;
37299;SDS011;23184;51.902;12.836;2023-08-12T00:59:18;4.45;;;2.08;;
37299;SDS011;23184;51.902;12.836;2023-08-12T01:01:45;3.92;;;2.30;;
37299;SDS011;23184;51.902;12.836;2023-08-12T01:04:12;5.05;;;2.40;;
37299;SDS011;23184;51.902;12.836;2023-08-12T01:06:38;7.35;;;2.25;;
37299;SDS011;23184;51.902;12.836;2023-08-12T01:09:04;6.95;;;2.20;;
37299;SDS011;23184;51.902;12.836;2023-08-12T01:11:39;7.25;;;2.30;;
37299;SDS011;23184;51.902;12.836;2023-08-12T01:14:23;4.53;;;2.08;;
37299;SDS011;23184;51.902;12.836;2023-08-12T01:16:55;3.00;;;2.03;;
37299;SDS011;23184;51.902;12.836;2023-08-12T01:19:38;5.70;;;2.25;;
37299;SDS011;23184;51.902;12.836;2023-08-12T01:22:06;5.13;;;1.92;;
37299;SDS011;23184;51.902;12.836;2023-08-12T01:24:35;3.78;;;1.90;;
37299;SDS011;23184;51.902;12.836;2023-08-12T01:27:01;6.85;;;2.10;;
37299;SDS011;23184;51.902;12.836;2023-08-12T01:29:27;10.43;;;2.45;;
37299;SDS011;23184;51.902;12.836;2023-08-12T01:32:11;7.95;;;2.08;;
37299;SDS011;23184;51.902;12.836;2023-08-12T01:34:46;5.85;;;2.58;;
37299;SDS011;23184;51.902;12.836;2023-08-12T01:37:32;5.43;;;2.40;;
37299;SDS011;23184;51.902;12.836;2023-08-12T01:39:59;12.32;;;2.53;;
37299;SDS011;23184;51.902;12.836;2023-08-12T01:42:30;5.78;;;2.63;;
37299;SDS011;23184;51.902;12.836;2023-08-12T01:44:57;7.00;;;2.22;;
37299;SDS011;23184;51.902;12.836;2023-08-12T01:47:24;4.43;;;2.33;;
37299;SDS011;23184;51.902;12.836;2023-08-12T01:49:50;4.28;;;2.03;;
37299;SDS011;23184;51.902;12.836;2023-08-12T01:52:15;3.95;;;2.40;;
37299;SDS011;23184;51.902;12.836;2023-08-12T01:54:41;4.70;;;2.30;;
37299;SDS011;23184;51.902;12.836;2023-08-12T01:57:06;6.80;;;2.50;;
37299;SDS011;23184;51.902;12.836;2023-08-12T01:59:37;4.53;;;2.30;;
37299;SDS011;23184;51.902;12.836;2023-08-12T02:02:03;5.07;;;2.30;;
37299;SDS011;23184;51.902;12.836;2023-08-12T02:04:29;6.57;;;2.20;;
37299;SDS011;23184;51.902;12.836;2023-08-12T02:06:54;4.35;;;2.35;;
37299;SDS011;23184;51.902;12.836;2023-08-12T02:09:20;6.82;;;2.53;;
37299;SDS011;23184;51.902;12.836;2023-08-12T02:11:47;6.00;;;2.42;;
37299;SDS011;23184;51.902;12.836;2023-08-12T02:14:13;4.30;;;2.40;;
37299;SDS011;23184;51.902;12.836;2023-08-12T02:16:38;5.45;;;2.28;;
37299;SDS011;23184;51.902;12.836;2023-08-12T02:19:04;6.20;;;2.38;;
37299;SDS011;23184;51.902;12.836;2023-08-12T02:21:29;3.42;;;2.25;;
37299;SDS011;23184;51.902;12.836;2023-08-12T02:23:55;4.70;;;2.40;;
37299;SDS011;23184;51.902;12.836;2023-08-12T02:26:20;8.55;;;2.40;;
37299;SDS011;23184;51.902;12.836;2023-08-12T02:28:46;6.90;;;2.30;;
37299;SDS011;23184;51.902;12.836;2023-08-12T02:31:11;3.42;;;1.73;;
37299;SDS011;23184;51.902;12.836;2023-08-12T02:33:37;6.28;;;2.70;;
37299;SDS011;23184;51.902;12.836;2023-08-12T02:36:02;5.78;;;2.30;;
37299;SDS011;23184;51.902;12.836;2023-08-12T02:38:28;10.20;;;2.65;;
37299;SDS011;23184;51.902;12.836;2023-08-12T02:40:54;3.63;;;2.40;;
37299;SDS011;23184;51.902;12.836;2023-08-12T02:43:20;3.35;;;2.35;;
37299;SDS011;23184;51.902;12.836;2023-08-12T02:45:46;7.22;;;2.40;;
37299;SDS011;23184;51.902;12.836;2023-08-12T02:48:12;6.80;;;2.38;;
37299;SDS011;23184;51.902;12.836;2023-08-12T02:50:38;6.78;;;2.65;;
37299;SDS011;23184;51.902;12.836;2023-08-12T02:53:04;5.80;;;2.58;;
37299;SDS011;23184;51.902;12.836;2023-08-12T02:55:30;9.07;;;2.80;;
37299;SDS011;23184;51.902;12.836;2023-08-12T02:57:59;11.73;;;3.45;;
37299;SDS011;23184;51.902;12.836;2023-08-12T03:00:25;7.72;;;3.25;;
37299;SDS011;23184;51.902;12.836;2023-08-12T03:02:52;9.63;;;3.55;;
37299;SDS011;23184;51.902;12.836;2023-08-12T03:05:18;5.65;;;2.90;;
37299;SDS011;23184;51.902;12.836;2023-08-12T03:07:43;8.25;;;3.08;;
37299;SDS011;23184;51.902;12.836;2023-08-12T03:10:09;7.90;;;2.92;;
37299;SDS011;23184;51.902;12.836;2023-08-12T03:12:35;6.85;;;3.47;;
37299;SDS011;23184;51.902;12.836;2023-08-12T03:15:00;7.55;;;3.00;;
37299;SDS011;23184;51.902;12.836;2023-08-12T03:17:26;8.57;;;3.30;;
37299;SDS011;23184;51.902;12.836;2023-08-12T03:19:52;6.47;;;3.47;;
37299;SDS011;23184;51.902;12.836;2023-08-12T03:22:19;5.85;;;3.05;;
37299;SDS011;23184;51.902;12.836;2023-08-12T03:24:45;9.73;;;2.85;;
37299;SDS011;23184;51.902;12.836;2023-08-12T03:27:10;8.98;;;3.30;;
37299;SDS011;23184;51.902;12.836;2023-08-12T03:29:36;8.93;;;3.40;;
37299;SDS011;23184;51.902;12.836;2023-08-12T03:32:02;5.20;;;3.20;;
37299;SDS011;23184;51.902;12.836;2023-08-12T03:34:28;10.43;;;3.55;;
37299;SDS011;23184;51.902;12.836;2023-08-12T03:36:54;6.82;;;3.40;;
37299;SDS011;23184;51.902;12.836;2023-08-12T03:39:20;9.93;;;3.15;;
37299;SDS011;23184;51.902;12.836;2023-08-12T03:41:45;6.10;;;3.30;;
37299;SDS011;23184;51.902;12.836;2023-08-12T03:44:11;4.53;;;3.20;;
37299;SDS011;23184;51.902;12.836;2023-08-12T03:46:36;5.60;;;3.50;;
37299;SDS011;23184;51.902;12.836;2023-08-12T03:49:02;7.20;;;3.28;;
37299;SDS011;23184;51.902;12.836;2023-08-12T03:51:27;7.22;;;3.25;;
37299;SDS011;23184;51.902;12.836;2023-08-12T03:53:53;7.03;;;3.25;;
37299;SDS011;23184;51.902;12.836;2023-08-12T03:56:19;5.57;;;3.33;;
37299;SDS011;23184;51.902;12.836;2023-08-12T03:58:44;6.20;;;3.05;;
37299;SDS011;23184;51.902;12.836;2023-08-12T04:01:10;8.68;;;3.28;;
37299;SDS011;23184;51.902;12.836;2023-08-12T04:03:35;4.30;;;2.95;;
37299;SDS011;23184;51.902;12.836;2023-08-12T04:06:01;5.10;;;3.30;;
37299;SDS011;23184;51.902;12.836;2023-08-12T04:08:28;8.80;;;3.80;;
37299;SDS011;23184;51.902;12.836;2023-08-12T04:10:53;9.32;;;3.90;;
37299;SDS011;23184;51.902;12.836;2023-08-12T04:13:19;7.43;;;3.35;;
37299;SDS011;23184;51.902;12.836;2023-08-12T04:15:48;8.50;;;3.63;;
37299;SDS011;23184;51.902;12.836;2023-08-12T04:18:14;5.85;;;3.78;;
37299;SDS011;23184;51.902;12.836;2023-08-12T04:20:40;6.38;;;3.30;;
37299;SDS011;23184;51.902;12.836;2023-08-12T04:23:06;8.10;;;3.45;;
37299;SDS011;23184;51.902;12.836;2023-08-12T04:25:31;9.85;;;3.78;;
37299;SDS011;23184;51.902;12.836;2023-08-12T04:27:57;11.35;;;3.75;;
37299;SDS011;23184;51.902;12.836;2023-08-12T04:30:23;6.28;;;3.60;;
37299;SDS011;23184;51.902;12.836;2023-08-12T04:32:49;7.57;;;3.53;;
37299;SDS011;23184;51.902;12.836;2023-08-12T04:35:14;7.47;;;3.00;;
37299;SDS011;23184;51.902;12.836;2023-08-12T04:37:40;10.60;;;3.30;;
37299;SDS011;23184;51.902;12.836;2023-08-12T04:40:05;4.53;;;2.85;;
37299;SDS011;23184;51.902;12.836;2023-08-12T04:42:36;8.63;;;3.17;;
37299;SDS011;23184;51.902;12.836;2023-08-12T04:45:01;8.15;;;3.63;;
37299;SDS011;23184;51.902;12.836;2023-08-12T04:47:28;8.55;;;3.78;;
37299;SDS011;23184;51.902;12.836;2023-08-12T04:49:54;9.77;;;3.92;;
37299;SDS011;23184;51.902;12.836;2023-08-12T04:52:19;6.90;;;3.20;;
37299;SDS011;23184;51.902;12.836;2023-08-12T04:54:45;7.43;;;3.58;;
37299;SDS011;23184;51.902;12.836;2023-08-12T04:57:11;9.43;;;3.50;;
37299;SDS011;23184;51.902;12.836;2023-08-12T04:59:36;8.85;;;3.45;;
37299;SDS011;23184;51.902;12.836;2023-08-12T05:02:02;9.98;;;3.63;;
37299;SDS011;23184;51.902;12.836;2023-08-12T05:04:28;7.50;;;3.65;;
37299;SDS011;23184;51.902;12.836;2023-08-12T05:06:53;12.10;;;3.70;;
37299;SDS011;23184;51.902;12.836;2023-08-12T05:09:19;6.85;;;3.28;;
37299;SDS011;23184;51.902;12.836;2023-08-12T05:11:44;10.38;;;3.35;;
37299;SDS011;23184;51.902;12.836;2023-08-12T05:14:10;6.80;;;3.38;;
37299;SDS011;23184;51.902;12.836;2023-08-12T05:16:35;6.45;;;3.47;;
37299;SDS011;23184;51.902;12.836;2023-08-12T05:19:01;6.18;;;3.83;;
37299;SDS011;23184;51.902;12.836;2023-08-12T05:21:26;5.93;;;3.20;;
37299;SDS011;23184;51.902;12.836;2023-08-12T05:23:52;9.55;;;3.35;;
37299;SDS011;23184;51.902;12.836;2023-08-12T05:26:18;7.22;;;3.47;;
37299;SDS011;23184;51.902;12.836;2023-08-12T05:28:45;9.90;;;4.18;;
37299;SDS011;23184;51.902;12.836;2023-08-12T05:31:10;7.25;;;3.70;;
37299;SDS011;23184;51.902;12.836;2023-08-12T05:33:36;9.90;;;3.97;;
37299;SDS011;23184;51.902;12.836;2023-08-12T05:36:01;7.60;;;3.42;;
37299;SDS011;23184;51.902;12.836;2023-08-12T05:38:27;7.43;;;3.70;;
37299;SDS011;23184;51.902;12.836;2023-08-12T05:40:53;10.05;;;3.92;;
37299;SDS011;23184;51.902;12.836;2023-08-12T05:43:18;6.35;;;3.42;;
37299;SDS011;23184;51.902;12.836;2023-08-12T05:45:44;6.47;;;3.65;;
37299;SDS011;23184;51.902;12.836;2023-08-12T05:48:09;9.07;;;3.55;;
37299;SDS011;23184;51.902;12.836;2023-08-12T05:50:35;6.75;;;3.35;;
37299;SDS011;23184;51.902;12.836;2023-08-12T05:53:00;8.77;;;3.72;;
37299;SDS011;23184;51.902;12.836;2023-08-12T05:55:26;9.02;;;3.55;;
37299;SDS011;23184;51.902;12.836;2023-08-12T05:57:51;6.65;;;4.25;;
37299;SDS011;23184;51.902;12.836;2023-08-12T06:00:17;5.07;;;3.08;;
37299;SDS011;23184;51.902;12.836;2023-08-12T06:02:42;6.60;;;3.75;;
37299;SDS011;23184;51.902;12.836;2023-08-12T06:05:08;10.65;;;3.55;;
37299;SDS011;23184;51.902;12.836;2023-08-12T06:07:34;8.70;;;3.70;;
37299;SDS011;23184;51.902;12.836;2023-08-12T06:10:00;7.47;;;3.65;;
37299;SDS011;23184;51.902;12.836;2023-08-12T06:12:26;6.28;;;4.05;;
37299;SDS011;23184;51.902;12.836;2023-08-12T06:14:51;6.78;;;3.45;;
37299;SDS011;23184;51.902;12.836;2023-08-12T06:17:17;6.88;;;3.50;;
37299;SDS011;23184;51.902;12.836;2023-08-12T06:19:42;9.13;;;3.88;;
37299;SDS011;23184;51.902;12.836;2023-08-12T06:22:08;9.00;;;3.63;;
37299;SDS011;23184;51.902;12.836;2023-08-12T06:24:33;9.43;;;3.92;;
37299;SDS011;23184;51.902;12.836;2023-08-12T06:26:59;8.23;;;3.65;;
37299;SDS011;23184;51.902;12.836;2023-08-12T06:29:24;4.68;;;3.38;;
37299;SDS011;23184;51.902;12.836;2023-08-12T06:31:51;7.65;;;4.03;;
37299;SDS011;23184;51.902;12.836;2023-08-12T06:34:17;7.25;;;3.97;;
37299;SDS011;23184;51.902;12.836;2023-08-12T06:36:43;7.55;;;3.80;;
37299;SDS011;23184;51.902;12.836;2023-08-12T06:39:08;4.65;;;3.33;;
37299;SDS011;23184;51.902;12.836;2023-08-12T06:41:34;6.80;;;3.85;;
37299;SDS011;23184;51.902;12.836;2023-08-12T06:43:59;7.05;;;3.50;;
37299;SDS011;23184;51.902;12.836;2023-08-12T06:46:26;5.38;;;3.17;;
37299;SDS011;23184;51.902;12.836;2023-08-12T06:48:51;10.15;;;4.57;;
37299;SDS011;23184;51.902;12.836;2023-08-12T06:51:17;5.95;;;3.80;;
37299;SDS011;23184;51.902;12.836;2023-08-12T06:53:42;7.03;;;3.53;;
37299;SDS011;23184;51.902;12.836;2023-08-12T06:56:08;8.90;;;3.92;;
37299;SDS011;23184;51.902;12.836;2023-08-12T06:58:33;8.05;;;3.72;;
37299;SDS011;23184;51.902;12.836;2023-08-12T07:00:59;4.43;;;3.40;;
37299;SDS011;23184;51.902;12.836;2023-08-12T07:03:25;6.45;;;3.53;;
37299;SDS011;23184;51.902;12.836;2023-08-12T07:05:52;6.47;;;4.50;;
37299;SDS011;23184;51.902;12.836;2023-08-12T07:08:18;24.95;;;4.60;;
37299;SDS011;23184;51.902;12.836;2023-08-12T07:10:43;6.13;;;3.42;;
37299;SDS011;23184;51.902;12.836;2023-08-12T07:13:09;8.15;;;3.75;;
37299;SDS011;23184;51.902;12.836;2023-08-12T07:15:35;8.75;;;4.10;;
37299;SDS011;23184;51.902;12.836;2023-08-12T07:18:00;7.10;;;3.70;;
37299;SDS011;23184;51.902;12.836;2023-08-12T07:20:26;5.90;;;3.75;;
37299;SDS011;23184;51.902;12.836;2023-08-12T07:22:52;12.60;;;4.00;;
37299;SDS011;23184;51.902;12.836;2023-08-12T07:25:18;7.15;;;3.60;;
37299;SDS011;23184;51.902;12.836;2023-08-12T07:27:43;7.43;;;3.65;;
37299;SDS011;23184;51.902;12.836;2023-08-12T07:30:09;5.03;;;3.95;;
37299;SDS011;23184;51.902;12.836;2023-08-12T07:32:37;8.55;;;3.28;;
37299;SDS011;23184;51.902;12.836;2023-08-12T07:35:04;7.45;;;3.92;;
37299;SDS011;23184;51.902;12.836;2023-08-12T07:37:33;6.95;;;3.67;;
37299;SDS011;23184;51.902;12.836;2023-08-12T07:39:58;5.05;;;3.50;;
37299;SDS011;23184;51.902;12.836;2023-08-12T07:42:24;13.65;;;4.07;;
37299;SDS011;23184;51.902;12.836;2023-08-12T07:44:49;6.72;;;4.15;;
37299;SDS011;23184;51.902;12.836;2023-08-12T07:47:15;8.68;;;3.65;;
37299;SDS011;23184;51.902;12.836;2023-08-12T07:49:41;6.20;;;3.47;;
37299;SDS011;23184;51.902;12.836;2023-08-12T07:52:07;6.78;;;3.80;;
37299;SDS011;23184;51.902;12.836;2023-08-12T07:54:33;9.30;;;4.13;;
37299;SDS011;23184;51.902;12.836;2023-08-12T07:56:58;6.30;;;3.75;;
37299;SDS011;23184;51.902;12.836;2023-08-12T07:59:24;6.93;;;4.05;;
37299;SDS011;23184;51.902;12.836;2023-08-12T08:01:50;8.77;;;4.18;;
37299;SDS011;23184;51.902;12.836;2023-08-12T08:04:16;7.32;;;3.70;;
37299;SDS011;23184;51.902;12.836;2023-08-12T08:06:42;7.07;;;3.88;;
37299;SDS011;23184;51.902;12.836;2023-08-12T08:09:07;7.97;;;3.42;;
37299;SDS011;23184;51.902;12.836;2023-08-12T08:11:33;5.78;;;3.60;;
37299;SDS011;23184;51.902;12.836;2023-08-12T08:13:59;5.90;;;3.60;;
37299;SDS011;23184;51.902;12.836;2023-08-12T08:16:24;6.55;;;4.03;;
37299;SDS011;23184;51.902;12.836;2023-08-12T08:18:50;7.32;;;3.58;;
37299;SDS011;23184;51.902;12.836;2023-08-12T08:21:16;6.22;;;3.80;;
37299;SDS011;23184;51.902;12.836;2023-08-12T08:23:41;9.38;;;3.47;;
37299;SDS011;23184;51.902;12.836;2023-08-12T08:26:08;5.68;;;4.03;;
37299;SDS011;23184;51.902;12.836;2023-08-12T08:28:34;6.95;;;3.65;;
37299;SDS011;23184;51.902;12.836;2023-08-12T08:30:59;4.47;;;3.75;;
37299;SDS011;23184;51.902;12.836;2023-08-12T08:33:25;4.65;;;3.55;;
37299;SDS011;23184;51.902;12.836;2023-08-12T08:35:51;6.20;;;3.60;;
37299;SDS011;23184;51.902;12.836;2023-08-12T08:38:17;5.03;;;3.50;;
37299;SDS011;23184;51.902;12.836;2023-08-12T08:40:42;7.10;;;3.50;;
37299;SDS011;23184;51.902;12.836;2023-08-12T08:43:08;3.95;;;3.10;;
37299;SDS011;23184;51.902;12.836;2023-08-12T08:45:35;8.10;;;4.07;;
37299;SDS011;23184;51.902;12.836;2023-08-12T08:48:02;4.65;;;2.80;;
37299;SDS011;23184;51.902;12.836;2023-08-12T08:50:31;3.08;;;2.78;;
37299;SDS011;23184;51.902;12.836;2023-08-12T08:52:57;2.88;;;2.50;;
37299;SDS011;23184;51.902;12.836;2023-08-12T08:55:24;4.70;;;2.88;;
37299;SDS011;23184;51.902;12.836;2023-08-12T08:57:49;4.95;;;3.00;;
37299;SDS011;23184;51.902;12.836;2023-08-12T09:00:15;4.75;;;2.80;;
37299;SDS011;23184;51.902;12.836;2023-08-12T09:02:43;6.07;;;3.10;;
37299;SDS011;23184;51.902;12.836;2023-08-12T09:05:10;6.22;;;2.80;;
37299;SDS011;23184;51.902;12.836;2023-08-12T09:07:37;4.13;;;2.80;;
37299;SDS011;23184;51.902;12.836;2023-08-12T09:10:04;6.60;;;3.42;;
37299;SDS011;23184;51.902;12.836;2023-08-12T09:12:30;5.13;;;3.65;;
37299;SDS011;23184;51.902;12.836;2023-08-12T09:14:57;5.78;;;3.30;;
37299;SDS011;23184;51.902;12.836;2023-08-12T09:17:22;4.85;;;3.45;;
37299;SDS011;23184;51.902;12.836;2023-08-12T09:19:48;5.53;;;3.85;;
37299;SDS011;23184;51.902;12.836;2023-08-12T09:22:15;5.13;;;3.50;;
37299;SDS011;23184;51.902;12.836;2023-08-12T09:24:40;7.25;;;3.97;;
37299;SDS011;23184;51.902;12.836;2023-08-12T09:27:08;6.60;;;4.00;;
37299;SDS011;23184;51.902;12.836;2023-08-12T09:29:34;6.47;;;4.00;;
37299;SDS011;23184;51.902;12.836;2023-08-12T09:32:13;6.60;;;3.95;;
37299;SDS011;23184;51.902;12.836;2023-08-12T09:34:47;5.10;;;3.75;;
37299;SDS011;23184;51.902;12.836;2023-08-12T09:37:13;6.65;;;4.05;;
37299;SDS011;23184;51.902;12.836;2023-08-12T09:39:39;7.55;;;3.85;;
37299;SDS011;23184;51.902;12.836;2023-08-12T09:42:05;5.55;;;4.15;;
37299;SDS011;23184;51.902;12.836;2023-08-12T09:44:34;6.72;;;4.18;;
37299;SDS011;23184;51.902;12.836;2023-08-12T09:47:00;6.75;;;4.25;;
37299;SDS011;23184;51.902;12.836;2023-08-12T09:49:25;8.35;;;4.38;;
37299;SDS011;23184;51.902;12.836;2023-08-12T09:51:52;4.55;;;3.97;;
37299;SDS011;23184;51.902;12.836;2023-08-12T09:54:18;7.40;;;3.58;;
37299;SDS011;23184;51.902;12.836;2023-08-12T09:56:46;7.07;;;3.83;;
37299;SDS011;23184;51.902;12.836;2023-08-12T09:59:13;6.85;;;3.22;;
37299;SDS011;23184;51.902;12.836;2023-08-12T10:01:43;6.22;;;3.85;;
37299;SDS011;23184;51.902;12.836;2023-08-12T10:04:10;8.27;;;4.22;;
37299;SDS011;23184;51.902;12.836;2023-08-12T10:06:40;8.18;;;3.80;;
37299;SDS011;23184;51.902;12.836;2023-08-12T10:09:06;7.72;;;4.45;;
37299;SDS011;23184;51.902;12.836;2023-08-12T10:11:33;5.68;;;4.20;;
37299;SDS011;23184;51.902;12.836;2023-08-12T10:14:00;4.80;;;4.30;;
37299;SDS011;23184;51.902;12.836;2023-08-12T10:16:26;7.57;;;4.07;;
37299;SDS011;23184;51.902;12.836;2023-08-12T10:18:54;8.38;;;4.28;;
37299;SDS011;23184;51.902;12.836;2023-08-12T10:21:22;6.10;;;4.47;;
37299;SDS011;23184;51.902;12.836;2023-08-12T10:23:48;5.47;;;4.10;;
37299;SDS011;23184;51.902;12.836;2023-08-12T10:26:15;5.20;;;3.78;;
37299;SDS011;23184;51.902;12.836;2023-08-12T10:28:43;5.15;;;3.58;;
37299;SDS011;23184;51.902;12.836;2023-08-12T10:31:10;4.95;;;3.65;;
37299;SDS011;23184;51.902;12.836;2023-08-12T10:33:39;8.45;;;3.75;;
37299;SDS011;23184;51.902;12.836;2023-08-12T10:36:05;5.38;;;3.40;;
37299;SDS011;23184;51.902;12.836;2023-08-12T10:38:32;7.38;;;3.80;;
37299;SDS011;23184;51.902;12.836;2023-08-12T10:41:17;5.18;;;3.60;;
37299;SDS011;23184;51.902;12.836;2023-08-12T10:46:30;5.82;;;3.60;;
37299;SDS011;23184;51.902;12.836;2023-08-12T10:48:58;5.75;;;3.35;;
37299;SDS011;23184;51.902;12.836;2023-08-12T10:51:39;6.45;;;3.60;;
37299;SDS011;23184;51.902;12.836;2023-08-12T11:02:25;5.22;;;3.67;;
37299;SDS011;23184;51.902;12.836;2023-08-12T11:05:12;5.75;;;2.72;;
37299;SDS011;23184;51.902;12.836;2023-08-12T11:10:04;6.85;;;4.05;;
37299;SDS011;23184;51.902;12.836;2023-08-12T11:12:36;5.55;;;3.60;;
37299;SDS011;23184;51.902;12.836;2023-08-12T11:15:02;6.15;;;3.60;;
37299;SDS011;23184;51.902;12.836;2023-08-12T11:17:32;5.38;;;3.60;;
37299;SDS011;23184;51.902;12.836;2023-08-12T11:19:59;5.80;;;3.92;;
37299;SDS011;23184;51.902;12.836;2023-08-12T11:22:26;5.75;;;3.38;;
37299;SDS011;23184;51.902;12.836;2023-08-12T11:24:52;5.10;;;3.78;;
37299;SDS011;23184;51.902;12.836;2023-08-12T11:27:18;7.35;;;3.63;;
37299;SDS011;23184;51.902;12.836;2023-08-12T11:29:43;9.27;;;3.47;;
37299;SDS011;23184;51.902;12.836;2023-08-12T11:32:09;6.55;;;3.70;;
37299;SDS011;23184;51.902;12.836;2023-08-12T11:34:35;4.32;;;3.90;;
37299;SDS011;23184;51.902;12.836;2023-08-12T11:37:02;6.75;;;3.65;;
37299;SDS011;23184;51.902;12.836;2023-08-12T11:39:28;4.78;;;3.85;;
37299;SDS011;23184;51.902;12.836;2023-08-12T11:41:54;5.57;;;3.63;;
37299;SDS011;23184;51.902;12.836;2023-08-12T11:44:23;5.13;;;4.07;;
37299;SDS011;23184;51.902;12.836;2023-08-12T11:46:49;6.80;;;3.50;;
37299;SDS011;23184;51.902;12.836;2023-08-12T11:49:15;7.55;;;3.70;;
37299;SDS011;23184;51.902;12.836;2023-08-12T11:51:40;6.60;;;3.50;;
37299;SDS011;23184;51.902;12.836;2023-08-12T11:54:08;6.10;;;3.47;;
37299;SDS011;23184;51.902;12.836;2023-08-12T11:56:34;5.18;;;3.63;;
37299;SDS011;23184;51.902;12.836;2023-08-12T11:59:00;7.68;;;3.25;;
37299;SDS011;23184;51.902;12.836;2023-08-12T12:01:26;5.90;;;3.30;;
37299;SDS011;23184;51.902;12.836;2023-08-12T12:03:53;3.83;;;3.08;;
37299;SDS011;23184;51.902;12.836;2023-08-12T12:06:29;5.22;;;3.10;;
37299;SDS011;23184;51.902;12.836;2023-08-12T12:09:03;3.92;;;3.08;;
37299;SDS011;23184;51.902;12.836;2023-08-12T12:11:33;3.47;;;2.72;;
37299;SDS011;23184;51.902;12.836;2023-08-12T12:14:02;6.63;;;2.95;;
37299;SDS011;23184;51.902;12.836;2023-08-12T12:16:45;3.53;;;2.63;;
37299;SDS011;23184;51.902;12.836;2023-08-12T12:19:21;4.87;;;2.83;;
37299;SDS011;23184;51.902;12.836;2023-08-12T12:21:48;3.60;;;2.40;;
37299;SDS011;23184;51.902;12.836;2023-08-12T12:24:15;2.50;;;2.30;;
37299;SDS011;23184;51.902;12.836;2023-08-12T12:26:41;4.50;;;2.03;;
37299;SDS011;23184;51.902;12.836;2023-08-12T12:29:07;4.03;;;2.30;;
37299;SDS011;23184;51.902;12.836;2023-08-12T12:31:33;3.05;;;2.55;;
37299;SDS011;23184;51.902;12.836;2023-08-12T12:34:03;3.15;;;2.38;;
37299;SDS011;23184;51.902;12.836;2023-08-12T12:36:30;3.42;;;2.30;;
37299;SDS011;23184;51.902;12.836;2023-08-12T12:38:56;8.35;;;2.33;;
37299;SDS011;23184;51.902;12.836;2023-08-12T12:41:22;3.72;;;2.30;;
37299;SDS011;23184;51.902;12.836;2023-08-12T12:43:47;4.50;;;2.13;;
37299;SDS011;23184;51.902;12.836;2023-08-12T12:46:13;4.38;;;2.20;;
37299;SDS011;23184;51.902;12.836;2023-08-12T12:48:39;3.47;;;2.38;;
37299;SDS011;23184;51.902;12.836;2023-08-12T12:51:05;2.58;;;2.20;;
37299;SDS011;23184;51.902;12.836;2023-08-12T12:53:31;3.20;;;2.03;;
37299;SDS011;23184;51.902;12.836;2023-08-12T12:55:57;4.03;;;2.00;;
37299;SDS011;23184;51.902;12.836;2023-08-12T12:58:25;2.42;;;1.90;;
37299;SDS011;23184;51.902;12.836;2023-08-12T13:00:50;3.55;;;1.90;;
37299;SDS011;23184;51.902;12.836;2023-08-12T13:03:16;3.08;;;1.77;;
37299;SDS011;23184;51.902;12.836;2023-08-12T13:05:41;3.42;;;2.00;;
37299;SDS011;23184;51.902;12.836;2023-08-12T13:08:07;2.20;;;2.00;;
37299;SDS011;23184;51.902;12.836;2023-08-12T13:10:33;4.05;;;1.98;;
37299;SDS011;23184;51.902;12.836;2023-08-12T13:12:58;5.82;;;2.13;;
37299;SDS011;23184;51.902;12.836;2023-08-12T13:15:24;2.00;;;1.77;;
37299;SDS011;23184;51.902;12.836;2023-08-12T13:17:51;2.70;;;1.70;;
37299;SDS011;23184;51.902;12.836;2023-08-12T13:20:17;3.53;;;1.92;;
37299;SDS011;23184;51.902;12.836;2023-08-12T13:22:42;2.15;;;1.90;;
37299;SDS011;23184;51.902;12.836;2023-08-12T13:25:08;5.07;;;1.58;;
37299;SDS011;23184;51.902;12.836;2023-08-12T13:27:33;3.47;;;1.60;;
37299;SDS011;23184;51.902;12.836;2023-08-12T13:29:59;3.35;;;1.70;;
37299;SDS011;23184;51.902;12.836;2023-08-12T13:32:24;2.20;;;1.60;;
37299;SDS011;23184;51.902;12.836;2023-08-12T13:34:50;5.30;;;1.80;;
37299;SDS011;23184;51.902;12.836;2023-08-12T13:37:15;2.00;;;1.73;;
37299;SDS011;23184;51.902;12.836;2023-08-12T13:39:41;2.92;;;1.80;;
37299;SDS011;23184;51.902;12.836;2023-08-12T13:42:07;2.13;;;1.70;;
37299;SDS011;23184;51.902;12.836;2023-08-12T13:44:32;3.25;;;1.90;;
37299;SDS011;23184;51.902;12.836;2023-08-12T13:46:57;2.13;;;1.75;;
37299;SDS011;23184;51.902;12.836;2023-08-12T13:49:24;4.03;;;1.65;;
37299;SDS011;23184;51.902;12.836;2023-08-12T13:51:49;4.10;;;1.70;;
37299;SDS011;23184;51.902;12.836;2023-08-12T13:54:15;3.08;;;1.90;;
37299;SDS011;23184;51.902;12.836;2023-08-12T13:56:40;2.85;;;1.60;;
37299;SDS011;23184;51.902;12.836;2023-08-12T13:59:06;3.08;;;2.08;;
37299;SDS011;23184;51.902;12.836;2023-08-12T14:01:31;5.57;;;2.00;;
37299;SDS011;23184;51.902;12.836;2023-08-12T14:03:57;3.75;;;1.92;;
37299;SDS011;23184;51.902;12.836;2023-08-12T14:06:22;2.53;;;1.70;;
37299;SDS011;23184;51.902;12.836;2023-08-12T14:08:48;7.07;;;1.90;;
37299;SDS011;23184;51.902;12.836;2023-08-12T14:11:13;6.85;;;2.53;;
37299;SDS011;23184;51.902;12.836;2023-08-12T14:13:39;4.00;;;1.95;;
37299;SDS011;23184;51.902;12.836;2023-08-12T14:16:04;3.17;;;1.83;;
37299;SDS011;23184;51.902;12.836;2023-08-12T14:18:31;3.28;;;1.80;;
37299;SDS011;23184;51.902;12.836;2023-08-12T14:20:56;2.42;;;2.00;;
37299;SDS011;23184;51.902;12.836;2023-08-12T14:23:22;5.18;;;2.22;;
37299;SDS011;23184;51.902;12.836;2023-08-12T14:25:48;2.70;;;1.90;;
37299;SDS011;23184;51.902;12.836;2023-08-12T14:28:13;4.03;;;1.95;;
37299;SDS011;23184;51.902;12.836;2023-08-12T14:30:39;4.95;;;1.90;;
37299;SDS011;23184;51.902;12.836;2023-08-12T14:33:04;2.70;;;1.90;;
37299;SDS011;23184;51.902;12.836;2023-08-12T14:35:31;3.67;;;1.55;;
37299;SDS011;23184;51.902;12.836;2023-08-12T14:37:58;5.68;;;1.92;;
37299;SDS011;23184;51.902;12.836;2023-08-12T14:40:24;4.97;;;1.60;;
37299;SDS011;23184;51.902;12.836;2023-08-12T14:42:49;1.83;;;1.60;;